createdAt,value
2018-12-12T00:02:06.290Z,5.60
2018-12-12T00:04:34.506Z,5.60
2018-12-12T00:07:02.983Z,5.60
2018-12-12T00:09:31.169Z,5.60
2018-12-12T00:11:59.376Z,5.60
2018-12-12T00:14:27.560Z,5.50
2018-12-12T00:16:55.864Z,5.50
2018-12-12T00:19:24.232Z,5.40
2018-12-12T00:21:52.480Z,5.40
2018-12-12T00:24:20.665Z,5.40
2018-12-12T00:26:48.882Z,5.30
2018-12-12T00:29:17.089Z,5.30
2018-12-12T00:31:45.261Z,5.20
2018-12-12T00:34:13.710Z,5.20
2018-12-12T00:36:42.025Z,5.20
2018-12-12T00:39:10.263Z,5.10
2018-12-12T00:41:38.532Z,5.10
2018-12-12T00:44:07.685Z,5.10
2018-12-12T00:46:36.040Z,5.00
2018-12-12T00:49:04.225Z,5.00
2018-12-12T00:51:32.430Z,5.00
2018-12-12T00:54:00.649Z,5.00
2018-12-12T00:56:28.873Z,5.00
2018-12-12T00:58:57.057Z,5.00
2018-12-12T01:01:25.236Z,5.00
2018-12-12T01:03:53.440Z,5.00
2018-12-12T01:06:21.648Z,4.90
2018-12-12T01:08:49.840Z,4.90
2018-12-12T01:11:25.799Z,4.90
2018-12-12T01:13:54.052Z,4.90
2018-12-12T01:16:22.228Z,4.90
2018-12-12T01:18:50.438Z,4.90
2018-12-12T01:21:18.620Z,4.90
2018-12-12T01:23:46.802Z,4.90
2018-12-12T01:26:15.145Z,4.90
2018-12-12T01:28:43.340Z,4.90
2018-12-12T01:31:11.529Z,4.90
2018-12-12T01:33:39.724Z,4.90
2018-12-12T01:36:07.922Z,4.90
2018-12-12T01:38:36.210Z,4.90
2018-12-12T01:41:04.412Z,4.90
2018-12-12T01:43:32.686Z,4.90
2018-12-12T01:46:01.166Z,4.90
2018-12-12T01:48:29.379Z,4.90
2018-12-12T01:50:57.600Z,4.90
2018-12-12T01:53:25.793Z,4.90
2018-12-12T01:55:53.992Z,4.90
2018-12-12T01:58:22.217Z,4.90
2018-12-12T02:00:50.427Z,5.00
2018-12-12T02:03:18.669Z,5.00
2018-12-12T02:05:46.869Z,5.00
2018-12-12T02:08:15.136Z,5.00
2018-12-12T02:10:43.346Z,5.00
2018-12-12T02:13:23.599Z,4.90
2018-12-12T02:15:51.873Z,5.00
2018-12-12T02:18:20.082Z,4.90
2018-12-12T02:20:48.278Z,4.90
2018-12-12T02:23:16.490Z,4.90
2018-12-12T02:25:44.943Z,4.90
2018-12-12T02:28:13.136Z,4.90
2018-12-12T02:30:41.405Z,4.90
2018-12-12T02:33:09.665Z,4.90
2018-12-12T02:35:37.882Z,4.90
2018-12-12T02:38:07.262Z,4.80
2018-12-12T02:40:35.468Z,4.90
2018-12-12T02:43:03.637Z,4.80
2018-12-12T02:45:31.895Z,4.80
2018-12-12T02:48:00.132Z,4.80
2018-12-12T02:50:28.316Z,4.80
2018-12-12T02:52:56.502Z,4.70
2018-12-12T02:55:24.702Z,4.70
2018-12-12T02:57:52.902Z,4.70
2018-12-12T03:00:21.077Z,4.60
2018-12-12T03:02:49.374Z,4.60
2018-12-12T03:05:17.776Z,4.60
2018-12-12T03:07:46.154Z,4.50
2018-12-12T03:10:14.372Z,4.50
2018-12-12T03:12:44.446Z,4.50
2018-12-12T03:15:12.665Z,4.40
2018-12-12T03:17:40.902Z,4.40
2018-12-12T03:20:09.367Z,4.40
2018-12-12T03:22:37.581Z,4.40
2018-12-12T03:25:05.897Z,4.40
2018-12-12T03:27:34.209Z,4.30
2018-12-12T03:30:02.672Z,4.30
2018-12-12T03:32:30.978Z,4.30
2018-12-12T03:34:59.195Z,4.20
2018-12-12T03:37:27.369Z,4.20
2018-12-12T03:39:55.657Z,4.20
2018-12-12T03:42:24.250Z,4.20
2018-12-12T03:44:52.522Z,4.10
2018-12-12T03:47:20.729Z,4.10
2018-12-12T03:49:48.969Z,4.10
2018-12-12T03:52:17.189Z,4.00
2018-12-12T03:54:45.434Z,4.00
2018-12-12T03:57:13.606Z,3.90
2018-12-12T03:59:41.797Z,3.90
2018-12-12T04:02:10.047Z,3.80
2018-12-12T04:04:38.254Z,3.80
2018-12-12T04:07:06.504Z,3.80
2018-12-12T04:09:34.678Z,3.70
2018-12-12T04:12:02.885Z,3.70
2018-12-12T04:14:31.104Z,3.60
2018-12-12T04:16:59.280Z,3.60
2018-12-12T04:19:27.517Z,3.50
2018-12-12T04:21:55.758Z,3.50
2018-12-12T04:24:25.824Z,3.50
2018-12-12T04:26:54.019Z,3.40
2018-12-12T04:29:22.203Z,3.40
2018-12-12T04:31:50.410Z,3.30
2018-12-12T04:34:18.639Z,3.30
2018-12-12T04:36:46.843Z,3.30
2018-12-12T04:39:15.099Z,3.30
2018-12-12T04:41:43.321Z,3.20
2018-12-12T04:44:11.658Z,3.20
2018-12-12T04:46:39.855Z,3.20
2018-12-12T04:49:08.023Z,3.20
2018-12-12T04:51:37.950Z,3.10
2018-12-12T04:54:07.207Z,3.10
2018-12-12T04:56:35.384Z,3.10
2018-12-12T04:59:04.009Z,3.00
2018-12-12T05:01:32.225Z,3.00
2018-12-12T05:04:00.421Z,3.00
2018-12-12T05:06:28.603Z,2.90
2018-12-12T05:08:56.963Z,2.90
2018-12-12T05:11:25.133Z,2.90
2018-12-12T05:13:53.317Z,2.90
2018-12-12T05:16:21.501Z,2.80
2018-12-12T05:18:49.705Z,2.80
2018-12-12T05:21:17.887Z,2.80
2018-12-12T05:23:46.091Z,2.80
2018-12-12T05:26:14.269Z,2.70
2018-12-12T05:28:42.445Z,2.70
2018-12-12T05:31:10.728Z,2.70
2018-12-12T05:33:39.019Z,2.70
2018-12-12T05:36:07.409Z,2.60
2018-12-12T05:38:35.627Z,2.60
2018-12-12T05:41:03.945Z,2.60
2018-12-12T05:43:32.216Z,2.60
2018-12-12T05:46:00.419Z,2.50
2018-12-12T05:48:28.643Z,2.50
2018-12-12T05:50:56.851Z,2.50
2018-12-12T05:53:25.029Z,2.50
2018-12-12T05:55:53.278Z,2.50
2018-12-12T05:58:21.557Z,2.50
2018-12-12T06:00:49.757Z,2.40
2018-12-12T06:03:17.964Z,2.40
2018-12-12T06:05:46.173Z,2.40
2018-12-12T06:08:14.354Z,2.40
2018-12-12T06:10:42.558Z,2.40
2018-12-12T06:13:10.764Z,2.40
2018-12-12T06:15:38.946Z,2.30
2018-12-12T06:18:07.137Z,2.30
2018-12-12T06:20:35.359Z,2.30
2018-12-12T06:23:03.811Z,2.20
2018-12-12T06:25:33.939Z,2.20
2018-12-12T06:28:02.118Z,2.20
2018-12-12T06:30:30.360Z,2.20
2018-12-12T06:32:58.574Z,2.20
2018-12-12T06:35:27.984Z,2.20
2018-12-12T06:37:56.192Z,2.20
2018-12-12T06:40:24.381Z,2.10
2018-12-12T06:42:52.677Z,2.10
2018-12-12T06:45:20.865Z,2.10
2018-12-12T06:47:49.052Z,2.10
2018-12-12T06:50:17.255Z,2.00
2018-12-12T06:52:45.442Z,2.00
2018-12-12T06:55:13.668Z,2.00
2018-12-12T06:57:41.911Z,2.00
2018-12-12T07:00:10.163Z,2.00
2018-12-12T07:02:38.381Z,2.00
2018-12-12T07:05:06.854Z,1.90
2018-12-12T07:07:35.306Z,1.90
2018-12-12T07:10:04.035Z,1.90
2018-12-12T07:12:32.257Z,1.90
2018-12-12T07:15:00.503Z,1.80
2018-12-12T07:17:28.737Z,1.80
2018-12-12T07:19:56.909Z,1.80
2018-12-12T07:22:25.103Z,1.80
2018-12-12T07:24:53.355Z,1.80
2018-12-12T07:27:21.827Z,1.90
2018-12-12T07:29:49.999Z,1.90
2018-12-12T07:32:18.183Z,1.90
2018-12-12T07:34:46.447Z,1.90
2018-12-12T07:37:14.721Z,1.90
2018-12-12T07:39:42.904Z,1.90
2018-12-12T07:42:11.077Z,1.80
2018-12-12T07:44:39.356Z,1.80
2018-12-12T07:47:07.671Z,1.80
2018-12-12T07:49:35.929Z,1.80
2018-12-12T07:52:04.282Z,1.80
2018-12-12T07:54:32.473Z,1.80
2018-12-12T07:57:00.705Z,1.80
2018-12-12T07:59:28.907Z,1.80
2018-12-12T08:01:57.119Z,1.80
2018-12-12T08:04:25.307Z,1.80
2018-12-12T08:06:53.536Z,1.80
2018-12-12T08:09:21.917Z,1.80
2018-12-12T08:11:50.169Z,1.80
2018-12-12T08:14:18.359Z,1.80
2018-12-12T08:16:46.611Z,1.80
2018-12-12T08:19:14.793Z,1.90
2018-12-12T08:21:42.973Z,1.90
2018-12-12T08:24:11.249Z,1.90
2018-12-12T08:26:39.443Z,2.00
2018-12-12T08:29:07.621Z,2.00
2018-12-12T08:31:35.875Z,2.00
2018-12-12T08:34:04.211Z,2.10
2018-12-12T08:36:32.515Z,2.10
2018-12-12T08:39:00.683Z,2.20
2018-12-12T08:41:28.891Z,2.20
2018-12-12T08:43:57.136Z,2.30
2018-12-12T08:46:25.417Z,2.30
2018-12-12T08:48:53.611Z,2.40
2018-12-12T08:51:21.855Z,2.40
2018-12-12T08:53:50.080Z,2.40
2018-12-12T08:56:18.302Z,2.50
2018-12-12T08:58:46.521Z,2.60
2018-12-12T09:01:14.821Z,2.60
2018-12-12T09:03:43.019Z,2.60
2018-12-12T09:06:11.435Z,2.70
2018-12-12T09:08:39.668Z,2.70
2018-12-12T09:11:07.850Z,2.70
2018-12-12T09:13:36.099Z,2.80
2018-12-12T09:16:04.301Z,2.80
2018-12-12T09:18:32.715Z,2.90
2018-12-12T09:21:00.903Z,2.90
2018-12-12T09:23:29.269Z,3.00
2018-12-12T09:25:57.437Z,3.10
2018-12-12T09:28:25.685Z,3.10
2018-12-12T09:30:53.979Z,3.20
2018-12-12T09:33:24.617Z,3.30
2018-12-12T09:35:52.549Z,3.40
2018-12-12T09:38:20.861Z,3.40
2018-12-12T09:40:49.141Z,3.50
2018-12-12T09:43:17.315Z,3.60
2018-12-12T09:45:45.553Z,3.60
2018-12-12T09:48:19.118Z,3.70
2018-12-12T09:50:47.391Z,3.80
2018-12-12T09:53:15.625Z,3.80
2018-12-12T09:55:43.818Z,3.90
2018-12-12T09:58:12.070Z,3.90
2018-12-12T10:00:41.777Z,4.00
2018-12-12T10:03:09.962Z,4.10
2018-12-12T10:05:38.145Z,4.10
2018-12-12T10:08:06.407Z,4.20
2018-12-12T10:10:34.588Z,4.20
2018-12-12T10:13:02.769Z,4.30
2018-12-12T10:15:32.863Z,4.30
2018-12-12T10:18:01.069Z,4.40
2018-12-12T10:20:29.266Z,4.40
2018-12-12T10:22:57.489Z,4.50
2018-12-12T10:25:25.788Z,4.50
2018-12-12T10:27:54.015Z,4.60
2018-12-12T10:30:22.211Z,4.60
2018-12-12T10:32:50.694Z,4.70
2018-12-12T10:35:18.870Z,4.70
2018-12-12T10:37:47.884Z,4.80
2018-12-12T10:40:16.079Z,4.80
2018-12-12T10:42:44.284Z,4.90
2018-12-12T10:45:12.533Z,4.90
2018-12-12T10:47:40.746Z,4.90
2018-12-12T10:50:09.036Z,5.00
2018-12-12T10:52:37.227Z,5.00
2018-12-12T10:55:05.868Z,5.10
2018-12-12T10:57:34.160Z,5.10
2018-12-12T11:00:02.344Z,5.20
2018-12-12T11:02:31.284Z,5.20
2018-12-12T11:05:01.352Z,5.30
2018-12-12T11:07:29.728Z,5.30
2018-12-12T11:09:57.998Z,5.30
2018-12-12T11:12:26.276Z,5.40
2018-12-12T11:14:54.672Z,5.40
2018-12-12T11:17:23.172Z,5.50
2018-12-12T11:19:51.518Z,5.50
2018-12-12T11:22:19.891Z,5.50
2018-12-12T11:24:48.037Z,5.50
2018-12-12T11:27:16.343Z,5.50
2018-12-12T11:29:44.525Z,5.50
2018-12-12T11:32:12.787Z,5.50
2018-12-12T11:34:41.063Z,5.50
2018-12-12T11:37:09.343Z,5.50
2018-12-12T11:39:37.670Z,5.60
2018-12-12T11:42:05.865Z,5.60
2018-12-12T11:44:34.078Z,5.60
2018-12-12T11:47:02.289Z,5.60
2018-12-12T11:49:30.528Z,5.70
2018-12-12T11:51:59.004Z,5.70
2018-12-12T11:54:27.242Z,5.70
2018-12-12T11:56:55.434Z,5.70
2018-12-12T11:59:24.024Z,5.70
2018-12-12T12:01:52.172Z,5.70
2018-12-12T12:04:20.376Z,5.70
2018-12-12T12:06:48.612Z,5.70
2018-12-12T12:09:16.836Z,5.60
2018-12-12T12:11:45.012Z,5.60
2018-12-12T12:14:13.270Z,5.50
2018-12-12T12:16:41.436Z,5.50
2018-12-12T12:19:09.654Z,5.50
2018-12-12T12:21:37.885Z,5.50
2018-12-12T12:24:07.194Z,5.50
2018-12-12T12:26:35.440Z,5.50
2018-12-12T12:29:03.691Z,5.50
2018-12-12T12:31:32.024Z,5.60
2018-12-12T12:34:03.259Z,5.60
2018-12-12T12:36:31.040Z,5.60
2018-12-12T12:38:59.238Z,5.60
2018-12-12T12:41:27.412Z,5.50
2018-12-12T12:43:55.619Z,5.50
2018-12-12T12:46:23.866Z,5.50
2018-12-12T12:48:52.074Z,5.50
2018-12-12T12:51:20.298Z,5.40
2018-12-12T12:53:48.518Z,5.40
2018-12-12T12:56:16.726Z,5.30
2018-12-12T12:58:45.136Z,5.30
2018-12-12T13:01:13.788Z,5.30
2018-12-12T13:03:41.956Z,5.20
2018-12-12T13:06:10.252Z,5.20
2018-12-12T13:08:38.432Z,5.10
2018-12-12T13:11:06.799Z,5.10
2018-12-12T13:13:35.147Z,5.00
2018-12-12T13:16:03.460Z,5.00
2018-12-12T13:18:31.668Z,5.00
2018-12-12T13:20:59.878Z,5.00
2018-12-12T13:23:28.064Z,5.00
2018-12-12T13:25:56.240Z,5.10
2018-12-12T13:28:24.469Z,5.10
2018-12-12T13:30:52.711Z,5.20
2018-12-12T13:33:21.984Z,5.20
2018-12-12T13:35:50.281Z,5.10
2018-12-12T13:38:18.470Z,5.00
2018-12-12T13:40:46.687Z,5.00
2018-12-12T13:43:14.921Z,5.00
2018-12-12T13:45:43.094Z,5.00
2018-12-12T13:48:11.314Z,5.00
2018-12-12T13:50:39.534Z,5.10
2018-12-12T13:53:07.805Z,5.10
2018-12-12T13:55:36.057Z,5.20
2018-12-12T13:58:04.631Z,5.30
2018-12-12T14:00:38.961Z,5.30
2018-12-12T14:03:03.120Z,5.30
2018-12-12T14:05:31.482Z,5.30
2018-12-12T14:07:59.705Z,5.30
2018-12-12T14:10:27.905Z,5.30
2018-12-12T14:12:56.173Z,5.30
2018-12-12T14:15:24.517Z,5.30
2018-12-12T14:17:52.705Z,5.30
2018-12-12T14:20:20.975Z,5.20
2018-12-12T14:22:49.150Z,5.10
2018-12-12T14:25:17.433Z,5.10
2018-12-12T14:27:45.621Z,5.20
2018-12-12T14:30:13.863Z,5.20
2018-12-12T14:32:42.059Z,5.30
2018-12-12T14:35:10.241Z,5.30
2018-12-12T14:37:38.457Z,5.40
2018-12-12T14:40:07.185Z,5.40
2018-12-12T14:42:35.550Z,5.40
2018-12-12T14:45:04.449Z,5.40
2018-12-12T14:47:32.817Z,5.50
2018-12-12T14:50:01.115Z,5.50
2018-12-12T14:52:29.484Z,5.50
2018-12-12T14:54:58.649Z,5.40
2018-12-12T14:57:26.962Z,5.30
2018-12-12T14:59:55.232Z,5.20
2018-12-12T15:02:23.414Z,5.20
2018-12-12T15:04:51.615Z,5.10
2018-12-12T15:07:19.901Z,5.10
2018-12-12T15:09:48.125Z,5.10
2018-12-12T15:12:16.508Z,5.10
2018-12-12T15:14:44.694Z,5.00
2018-12-12T15:17:12.964Z,5.00
2018-12-12T15:19:41.163Z,4.90
2018-12-12T15:22:09.704Z,4.90
2018-12-12T15:24:37.875Z,4.90
2018-12-12T15:27:06.282Z,4.90
2018-12-12T15:29:34.528Z,4.90
2018-12-12T15:32:02.748Z,4.90
2018-12-12T15:34:31.004Z,4.90
2018-12-12T15:36:59.215Z,4.90
2018-12-12T15:39:27.429Z,4.90
2018-12-12T15:41:55.764Z,4.80
2018-12-12T15:44:24.102Z,4.80
2018-12-12T15:46:52.283Z,4.80
2018-12-12T15:49:20.516Z,4.80
2018-12-12T15:51:48.698Z,4.80
2018-12-12T15:54:16.993Z,4.80
2018-12-12T15:56:45.280Z,4.80
2018-12-12T15:59:13.487Z,4.80
2018-12-12T16:01:41.705Z,4.80
2018-12-12T16:04:09.897Z,4.80
2018-12-12T16:06:38.078Z,4.80
2018-12-12T16:09:06.464Z,4.70
2018-12-12T16:11:34.694Z,4.70
2018-12-12T16:14:02.883Z,4.70
2018-12-12T16:16:31.071Z,4.70
2018-12-12T16:18:59.256Z,4.70
2018-12-12T16:21:27.550Z,4.70
2018-12-12T16:23:55.779Z,4.80
2018-12-12T16:26:23.961Z,4.80
2018-12-12T16:28:52.159Z,4.80
2018-12-12T16:31:21.329Z,4.80
2018-12-12T16:33:49.601Z,4.80
2018-12-12T16:36:17.875Z,4.90
2018-12-12T16:38:46.073Z,4.90
2018-12-12T16:41:14.305Z,4.90
2018-12-12T16:43:42.636Z,4.90
2018-12-12T16:46:10.845Z,5.00
2018-12-12T16:48:39.041Z,5.00
2018-12-12T16:51:07.241Z,5.00
2018-12-12T16:53:35.455Z,5.00
2018-12-12T16:56:04.193Z,5.00
2018-12-12T16:58:32.408Z,5.00
2018-12-12T17:01:00.707Z,4.90
2018-12-12T17:03:28.937Z,4.90
2018-12-12T17:05:57.146Z,4.90
2018-12-12T17:08:25.377Z,4.90
2018-12-12T17:10:53.569Z,4.80
2018-12-12T17:13:21.768Z,4.80
2018-12-12T17:15:49.954Z,4.70
2018-12-12T17:18:18.146Z,4.70
2018-12-12T17:20:46.450Z,4.70
2018-12-12T17:23:14.654Z,4.60
2018-12-12T17:25:42.848Z,4.60
2018-12-12T17:28:11.071Z,4.60
2018-12-12T17:30:39.268Z,4.60
2018-12-12T17:33:07.497Z,4.60
2018-12-12T17:35:35.663Z,4.60
2018-12-12T17:38:03.848Z,4.60
2018-12-12T17:40:32.127Z,4.60
2018-12-12T17:43:00.367Z,4.60
2018-12-12T17:45:28.603Z,4.60
2018-12-12T17:47:56.862Z,4.60
2018-12-12T17:50:25.061Z,4.60
2018-12-12T17:52:53.294Z,4.70
2018-12-12T17:55:21.514Z,4.70
2018-12-12T17:57:51.312Z,4.70
2018-12-12T18:00:19.627Z,4.70
2018-12-12T18:02:47.839Z,4.70
2018-12-12T18:05:16.235Z,4.60
2018-12-12T18:07:44.414Z,4.60
2018-12-12T18:10:12.786Z,4.60
2018-12-12T18:12:41.034Z,4.50
2018-12-12T18:15:09.268Z,4.50
2018-12-12T18:17:37.496Z,4.40
2018-12-12T18:20:05.817Z,4.40
2018-12-12T18:22:34.206Z,4.30
2018-12-12T18:25:02.453Z,4.30
2018-12-12T18:27:30.752Z,4.30
2018-12-12T18:29:58.977Z,4.20
2018-12-12T18:32:27.264Z,4.20
2018-12-12T18:34:55.526Z,4.10
2018-12-12T18:37:23.900Z,4.00
2018-12-12T18:39:52.106Z,4.00
2018-12-12T18:42:20.275Z,4.00
2018-12-12T18:44:48.507Z,3.90
2018-12-12T18:47:16.705Z,3.90
2018-12-12T18:49:44.889Z,3.90
2018-12-12T18:52:13.184Z,3.80
2018-12-12T18:54:41.401Z,3.80
2018-12-12T18:57:09.592Z,3.80
2018-12-12T18:59:37.875Z,3.70
2018-12-12T19:02:06.121Z,3.70
2018-12-12T19:04:34.308Z,3.60
2018-12-12T19:07:02.520Z,3.60
2018-12-12T19:09:30.801Z,3.60
2018-12-12T19:11:59.124Z,3.60
2018-12-12T19:14:27.418Z,3.50
2018-12-12T19:16:55.742Z,3.50
2018-12-12T19:19:24.082Z,3.50
2018-12-12T19:21:52.376Z,3.50
2018-12-12T19:24:20.656Z,3.40
2018-12-12T19:26:48.904Z,3.40
2018-12-12T19:29:17.098Z,3.40
2018-12-12T19:31:45.332Z,3.40
2018-12-12T19:34:13.536Z,3.30
2018-12-12T19:36:41.714Z,3.30
2018-12-12T19:39:09.971Z,3.30
2018-12-12T19:41:38.180Z,3.30
2018-12-12T19:44:07.324Z,3.30
2018-12-12T19:46:35.511Z,3.30
2018-12-12T19:49:03.692Z,3.20
2018-12-12T19:51:31.899Z,3.20
2018-12-12T19:54:00.108Z,3.20
2018-12-12T19:56:28.356Z,3.20
2018-12-12T19:58:56.540Z,3.10
2018-12-12T20:01:24.772Z,3.20
2018-12-12T20:03:53.118Z,3.10
2018-12-12T20:06:21.308Z,3.10
2018-12-12T20:08:49.674Z,3.10
2018-12-12T20:11:17.879Z,3.10
2018-12-12T20:13:46.148Z,3.10
2018-12-12T20:16:14.346Z,3.10
2018-12-12T20:18:42.561Z,3.20
2018-12-12T20:21:10.812Z,3.20
2018-12-12T20:23:39.028Z,3.20
2018-12-12T20:26:07.294Z,3.20
2018-12-12T20:28:35.500Z,3.20
2018-12-12T20:31:03.712Z,3.20
2018-12-12T20:33:31.932Z,3.20
2018-12-12T20:36:00.127Z,3.20
2018-12-12T20:38:28.337Z,3.10
2018-12-12T20:40:56.640Z,3.10
2018-12-12T20:43:24.822Z,3.10
2018-12-12T20:45:53.196Z,3.00
2018-12-12T20:48:21.403Z,3.00
2018-12-12T20:50:49.601Z,3.00
2018-12-12T20:53:17.830Z,3.00
2018-12-12T20:55:46.012Z,3.00
2018-12-12T20:58:14.488Z,3.00
2018-12-12T21:00:42.661Z,2.90
2018-12-12T21:03:10.912Z,2.90
2018-12-12T21:05:39.129Z,2.90
2018-12-12T21:08:07.308Z,2.90
2018-12-12T21:10:35.786Z,2.90
2018-12-12T21:13:04.048Z,2.80
2018-12-12T21:15:32.555Z,2.80
2018-12-12T21:18:00.751Z,2.80
2018-12-12T21:20:29.024Z,2.80
2018-12-12T21:22:57.460Z,2.80
2018-12-12T21:25:27.734Z,2.80
2018-12-12T21:27:55.954Z,2.70
2018-12-12T21:30:24.132Z,2.70
2018-12-12T21:32:52.322Z,2.70
2018-12-12T21:35:20.618Z,2.70
2018-12-12T21:37:48.856Z,2.70
2018-12-12T21:40:17.119Z,2.60
2018-12-12T21:42:47.234Z,2.60
2018-12-12T21:45:15.468Z,2.60
2018-12-12T21:47:43.712Z,2.60
2018-12-12T21:50:11.894Z,2.60
2018-12-12T21:52:40.116Z,2.60
2018-12-12T21:55:08.416Z,2.60
2018-12-12T21:57:36.595Z,2.60
2018-12-12T22:00:06.639Z,2.50
2018-12-12T22:02:35.066Z,2.50
2018-12-12T22:05:04.280Z,2.50
2018-12-12T22:07:32.492Z,2.50
2018-12-12T22:10:00.695Z,2.40
2018-12-12T22:12:28.884Z,2.50
2018-12-12T22:14:57.251Z,2.40
2018-12-12T22:17:25.447Z,2.40
2018-12-12T22:19:53.641Z,2.40
2018-12-12T22:22:21.913Z,2.40
2018-12-12T22:24:50.104Z,2.40
2018-12-12T22:27:18.319Z,2.30
2018-12-12T22:29:46.631Z,2.40
2018-12-12T22:32:14.827Z,2.30
2018-12-12T22:34:43.014Z,2.30
2018-12-12T22:37:11.253Z,2.30
2018-12-12T22:39:39.449Z,2.30
2018-12-12T22:42:07.691Z,2.30
2018-12-12T22:44:36.081Z,2.30
2018-12-12T22:47:04.369Z,2.20
2018-12-12T22:49:32.595Z,2.20
2018-12-12T22:52:00.785Z,2.20
2018-12-12T22:54:29.089Z,2.20
2018-12-12T22:56:57.283Z,2.20
2018-12-12T22:59:25.495Z,2.20
2018-12-12T23:01:53.772Z,2.20
2018-12-12T23:04:21.948Z,2.20
2018-12-12T23:06:52.077Z,2.20
2018-12-12T23:09:20.259Z,2.10
2018-12-12T23:11:48.474Z,2.10
2018-12-12T23:14:16.694Z,2.10
2018-12-12T23:16:44.908Z,2.10
2018-12-12T23:19:13.086Z,2.20
2018-12-12T23:21:41.413Z,2.20
2018-12-12T23:24:09.654Z,2.20
2018-12-12T23:26:37.882Z,2.20
2018-12-12T23:29:06.072Z,2.20
2018-12-12T23:31:34.348Z,2.20
2018-12-12T23:34:02.570Z,2.20
2018-12-12T23:36:30.885Z,2.20
2018-12-12T23:38:59.056Z,2.20
2018-12-12T23:41:27.246Z,2.30
2018-12-12T23:43:55.518Z,2.20
2018-12-12T23:46:23.788Z,2.20
2018-12-12T23:48:52.077Z,2.30
2018-12-12T23:51:20.308Z,2.30
2018-12-12T23:53:48.490Z,2.30
2018-12-12T23:56:16.700Z,2.30
2018-12-12T23:58:45.068Z,2.30
